This is the latest recevied weather packets stored in our database for station/object HS5SQI-2. If no packets are shown the sender has not sent any weather packets the latest 10 day(s).
| Time | Temp. | Humidity | Pressure | Rain* | Wind** | Luminosity | Snow |
|---|---|---|---|---|---|---|---|
| 1777615285 | 39.44° C | 44% | 1006 hPa | - | - | 0 W/m² | - |
| 1777614663 | 38.89° C | 46% | 1006 hPa | - | - | 0 W/m² | - |
| 1777614042 | 38.33° C | 47% | 1007 hPa | - | - | 0 W/m² | - |
| 1777613419 | 38.89° C | 49% | 1007 hPa | - | - | 0 W/m² | - |
| 1777612798 | 40° C | 45% | 1007 hPa | - | - | 0 W/m² | - |
| 1777612175 | 39.44° C | 47% | 1007 hPa | - | - | 0 W/m² | - |
| 1777611553 | 38.89° C | 48% | 1007 hPa | - | - | 0 W/m² | - |
| 1777610931 | 38.33° C | 48% | 1008 hPa | - | - | 0 W/m² | - |
| 1777610309 | 37.78° C | 50% | 1008 hPa | - | - | 0 W/m² | - |
| 1777609687 | 37.78° C | 53% | 1008 hPa | - | - | 0 W/m² | - |
| 1777609065 | 37.22° C | 55% | 1008 hPa | - | - | 0 W/m² | - |
| 1777608443 | 36.67° C | 56% | 1008 hPa | - | - | 0 W/m² | - |
| 1777607821 | 36.67° C | 57% | 1008 hPa | - | - | 0 W/m² | - |
| 1777607199 | 36.67° C | 58% | 1008 hPa | - | - | 0 W/m² | - |
| 1777606577 | 37.22° C | 57% | 1008 hPa | - | - | 0 W/m² | - |
| 1777605955 | 37.22° C | 58% | 1008 hPa | - | - | 0 W/m² | - |
| 1777605333 | 36.11° C | 59% | 1008 hPa | - | - | 0 W/m² | - |
| 1777604711 | 35.56° C | 60% | 1008 hPa | - | - | 0 W/m² | - |
| 1777604089 | 35.56° C | 61% | 1008 hPa | - | - | 0 W/m² | - |
| 1777603467 | 35° C | 63% | 1008 hPa | - | - | 0 W/m² | - |
| 1777602844 | 34.44° C | 64% | 1008 hPa | - | - | 0 W/m² | - |
| 1777602222 | 35° C | 64% | 1008 hPa | - | - | 0 W/m² | - |
| 1777601600 | 34.44° C | 66% | 1009 hPa | - | - | 0 W/m² | - |
| 1777600978 | 33.89° C | 67% | 1009 hPa | - | - | 0 W/m² | - |
| 1777600356 | 33.89° C | 67% | 1009 hPa | - | - | 0 W/m² | - |
* Rain since midnight (hover to see other rain measurements)
** Current wind speed in m/s (hover to see current wind gust speed)